createdAt,value
2018-10-07T00:00:11.665Z,931.6
2018-10-07T00:01:11.594Z,931.5
2018-10-07T00:02:11.498Z,931.5
2018-10-07T00:03:11.399Z,931.5
2018-10-07T00:04:11.315Z,931.5
2018-10-07T00:05:11.509Z,931.5
2018-10-07T00:06:11.249Z,931.5
2018-10-07T00:07:11.006Z,931.5
2018-10-07T00:08:10.739Z,931.5
2018-10-07T00:09:10.479Z,931.5
2018-10-07T00:10:10.218Z,931.5
2018-10-07T00:11:09.967Z,931.5
2018-10-07T00:12:09.709Z,931.5
2018-10-07T00:13:09.469Z,931.5
2018-10-07T00:14:09.201Z,931.5
2018-10-07T00:15:09.559Z,931.5
2018-10-07T00:16:09.472Z,931.4
2018-10-07T00:17:09.401Z,931.4
2018-10-07T00:18:09.337Z,931.5
2018-10-07T00:19:09.236Z,931.5
2018-10-07T00:20:09.132Z,931.5
2018-10-07T00:21:09.034Z,931.5
2018-10-07T00:22:08.937Z,931.5
2018-10-07T00:23:08.861Z,931.5
2018-10-07T00:24:08.805Z,931.5
2018-10-07T00:25:09.145Z,931.4
2018-10-07T00:26:09.048Z,931.3
2018-10-07T00:27:08.969Z,931.4
2018-10-07T00:28:08.867Z,931.3
2018-10-07T00:29:08.788Z,931.4
2018-10-07T00:30:08.769Z,931.3
2018-10-07T00:31:08.730Z,931.4
2018-10-07T00:32:08.651Z,931.4
2018-10-07T00:33:08.560Z,931.3
2018-10-07T00:34:08.462Z,931.4
2018-10-07T00:35:08.852Z,931.4
2018-10-07T00:36:08.747Z,931.3
2018-10-07T00:37:08.646Z,931.4
2018-10-07T00:38:08.547Z,931.3
2018-10-07T00:39:08.469Z,931.4
2018-10-07T00:40:08.375Z,931.4
2018-10-07T00:41:08.325Z,931.4
2018-10-07T00:42:08.249Z,931.4
2018-10-07T00:43:08.164Z,931.4
2018-10-07T00:44:08.087Z,931.5
2018-10-07T00:45:08.260Z,931.4
2018-10-07T00:46:08.008Z,931.5
2018-10-07T00:47:07.765Z,931.4
2018-10-07T00:48:07.514Z,931.4
2018-10-07T00:49:07.259Z,931.4
2018-10-07T00:50:07.000Z,931.4
2018-10-07T00:51:06.748Z,931.3
2018-10-07T00:52:06.493Z,931.3
2018-10-07T00:53:06.243Z,931.3
2018-10-07T00:54:05.975Z,931.3
2018-10-07T00:55:06.311Z,931.4
2018-10-07T00:56:06.216Z,931.4
2018-10-07T00:57:06.116Z,931.3
2018-10-07T00:58:06.044Z,931.4
2018-10-07T00:59:05.989Z,931.2
2018-10-07T01:00:05.894Z,931.3
2018-10-07T01:01:05.806Z,930.9
2018-10-07T01:02:05.728Z,931.3
2018-10-07T01:03:05.634Z,931.3
2018-10-07T01:04:05.550Z,931.4
2018-10-07T01:05:05.939Z,931.4
2018-10-07T01:06:05.844Z,931.3
2018-10-07T01:07:05.752Z,931.4
2018-10-07T01:08:05.658Z,931.4
2018-10-07T01:09:05.559Z,931.3
2018-10-07T01:10:05.478Z,931.4
2018-10-07T01:11:05.374Z,931.3
2018-10-07T01:12:05.278Z,931.3
2018-10-07T01:13:05.190Z,931.3
2018-10-07T01:14:05.093Z,931.3
2018-10-07T01:15:05.477Z,931.2
2018-10-07T01:16:05.418Z,931.3
2018-10-07T01:17:05.326Z,931.3
2018-10-07T01:18:05.240Z,931.2
2018-10-07T01:19:05.152Z,931.3
2018-10-07T01:20:05.060Z,931.3
2018-10-07T01:21:05.008Z,931.2
2018-10-07T01:22:04.927Z,931.1
2018-10-07T01:23:04.829Z,931.1
2018-10-07T01:24:04.736Z,930.8
2018-10-07T01:25:05.093Z,931.2
2018-10-07T01:26:05.006Z,931.2
2018-10-07T01:27:04.932Z,931.2
2018-10-07T01:28:04.845Z,931.2
2018-10-07T01:29:04.738Z,931.2
2018-10-07T01:30:04.640Z,931.2
2018-10-07T01:31:04.568Z,931.2
2018-10-07T01:32:04.499Z,931.3
2018-10-07T01:33:04.413Z,931.2
2018-10-07T01:34:04.320Z,931.1
2018-10-07T01:35:04.738Z,931.2
2018-10-07T01:36:04.636Z,931.2
2018-10-07T01:37:04.556Z,931.2
2018-10-07T01:38:04.493Z,931.2
2018-10-07T01:39:04.399Z,931.2
2018-10-07T01:40:04.310Z,931.1
2018-10-07T01:41:04.210Z,931.2
2018-10-07T01:42:04.119Z,931.2
2018-10-07T01:43:04.028Z,931.2
2018-10-07T01:44:03.966Z,931.2
2018-10-07T01:45:04.315Z,931.1
2018-10-07T01:46:04.233Z,931.2
2018-10-07T01:47:04.147Z,931.2
2018-10-07T01:48:04.054Z,931.2
2018-10-07T01:49:03.960Z,931.1
2018-10-07T01:50:03.870Z,931.1
2018-10-07T01:51:03.783Z,931.1
2018-10-07T01:52:03.684Z,931.1
2018-10-07T01:53:03.594Z,931.1
2018-10-07T01:54:03.504Z,931.2
2018-10-07T01:55:03.694Z,931.2
2018-10-07T01:56:03.429Z,931.1
2018-10-07T01:57:03.168Z,931.2
2018-10-07T01:58:02.904Z,931.1
2018-10-07T01:59:02.644Z,931.2
2018-10-07T02:00:02.441Z,931.1
2018-10-07T02:01:02.193Z,931.2
2018-10-07T02:02:01.957Z,931.2
2018-10-07T02:03:01.699Z,931.2
2018-10-07T02:04:01.433Z,931.2
2018-10-07T02:05:02.443Z,931.1
2018-10-07T02:06:02.399Z,931.1
2018-10-07T02:07:02.315Z,931.2
2018-10-07T02:08:02.234Z,931.1
2018-10-07T02:09:02.148Z,931.1
2018-10-07T02:10:02.073Z,931.1
2018-10-07T02:11:01.990Z,931
2018-10-07T02:12:01.911Z,931.1
2018-10-07T02:13:01.829Z,931.1
2018-10-07T02:14:02.546Z,931.1
2018-10-07T02:15:03.007Z,931.1
2018-10-07T02:16:02.745Z,931.2
2018-10-07T02:17:02.497Z,931.2
2018-10-07T02:18:02.243Z,931.2
2018-10-07T02:19:01.994Z,931.2
2018-10-07T02:20:01.756Z,931.1
2018-10-07T02:21:01.503Z,931.1
2018-10-07T02:22:01.247Z,931.2
2018-10-07T02:23:01.004Z,931.2
2018-10-07T02:24:00.731Z,931.2
2018-10-07T02:25:01.078Z,931.2
2018-10-07T02:26:00.964Z,931.2
2018-10-07T02:27:00.931Z,931.3
2018-10-07T02:28:00.837Z,931.3
2018-10-07T02:29:00.758Z,931.2
2018-10-07T02:30:00.663Z,931.1
2018-10-07T02:31:00.562Z,931.2
2018-10-07T02:32:00.476Z,931.2
2018-10-07T02:33:00.422Z,931.2
2018-10-07T02:34:00.361Z,931.2
2018-10-07T02:35:00.700Z,931.2
2018-10-07T02:36:00.611Z,931.1
2018-10-07T02:37:00.533Z,931.2
2018-10-07T02:38:00.442Z,931.1
2018-10-07T02:39:00.361Z,931.2
2018-10-07T02:40:00.284Z,931.2
2018-10-07T02:41:00.192Z,931.2
2018-10-07T02:42:00.096Z,931.2
2018-10-07T02:43:00.004Z,931.2
2018-10-07T02:43:59.915Z,931.2
2018-10-07T02:45:00.312Z,931.2
2018-10-07T02:46:00.245Z,931.2
2018-10-07T02:47:00.157Z,931.2
2018-10-07T02:48:00.077Z,931.2
2018-10-07T02:48:59.978Z,931.1
2018-10-07T02:49:59.891Z,931.1
2018-10-07T02:50:59.811Z,931.1
2018-10-07T02:51:59.787Z,931.1
2018-10-07T02:52:59.703Z,931.1
2018-10-07T02:53:59.605Z,931.2
2018-10-07T02:54:59.761Z,931.2
2018-10-07T02:55:59.499Z,931.2
2018-10-07T02:56:59.260Z,931.2
2018-10-07T02:57:59.005Z,931.2
2018-10-07T02:58:58.747Z,931.3
2018-10-07T02:59:58.488Z,931.3
2018-10-07T03:00:58.221Z,931.2
2018-10-07T03:01:57.973Z,931.2
2018-10-07T03:02:57.736Z,931.3
2018-10-07T03:03:57.499Z,931.2
2018-10-07T03:04:57.974Z,931.3
2018-10-07T03:05:57.875Z,931.3
2018-10-07T03:06:57.789Z,931.3
2018-10-07T03:07:57.694Z,931.3
2018-10-07T03:08:57.621Z,931.3
2018-10-07T03:09:57.531Z,931.3
2018-10-07T03:10:57.486Z,931.3
2018-10-07T03:11:57.395Z,931.3
2018-10-07T03:12:57.314Z,931.2
2018-10-07T03:13:57.249Z,931.2
2018-10-07T03:14:57.601Z,931.3
2018-10-07T03:15:57.499Z,931.2
2018-10-07T03:16:57.404Z,931.2
2018-10-07T03:17:57.325Z,930.9
2018-10-07T03:18:57.232Z,931.3
2018-10-07T03:19:57.156Z,931.3
2018-10-07T03:20:57.079Z,931.3
2018-10-07T03:21:56.986Z,931.3
2018-10-07T03:22:56.896Z,931.3
2018-10-07T03:23:56.830Z,931.3
2018-10-07T03:24:57.156Z,931.2
2018-10-07T03:25:57.085Z,931.3
2018-10-07T03:26:56.974Z,931.3
2018-10-07T03:27:56.872Z,931.2
2018-10-07T03:28:56.809Z,931.4
2018-10-07T03:29:56.714Z,931.5
2018-10-07T03:30:56.684Z,931.3
2018-10-07T03:31:56.606Z,931.4
2018-10-07T03:32:56.522Z,931.4
2018-10-07T03:33:56.427Z,931.4
2018-10-07T03:34:57.131Z,931.4
2018-10-07T03:35:57.053Z,931.4
2018-10-07T03:36:56.977Z,931.4
2018-10-07T03:37:56.893Z,931.4
2018-10-07T03:38:56.843Z,931.4
2018-10-07T03:39:56.763Z,931.2
2018-10-07T03:40:56.676Z,931.4
2018-10-07T03:41:56.584Z,931.4
2018-10-07T03:42:56.517Z,931.4
2018-10-07T03:43:56.439Z,931.4
2018-10-07T03:44:56.780Z,931.4
2018-10-07T03:45:56.690Z,931.4
2018-10-07T03:46:56.589Z,931.4
2018-10-07T03:47:56.509Z,931.5
2018-10-07T03:48:56.444Z,931.5
2018-10-07T03:49:56.385Z,931.4
2018-10-07T03:50:56.290Z,931.5
2018-10-07T03:51:56.209Z,931.4
2018-10-07T03:52:56.130Z,931.5
2018-10-07T03:53:56.061Z,931.5
2018-10-07T03:54:56.446Z,931.5
2018-10-07T03:55:56.370Z,931.5
2018-10-07T03:56:56.287Z,931.5
2018-10-07T03:57:56.193Z,931.5
2018-10-07T03:58:56.099Z,931.6
2018-10-07T03:59:56.029Z,931.5
2018-10-07T04:00:55.917Z,931.5
2018-10-07T04:01:55.832Z,931.5
2018-10-07T04:02:55.742Z,931.5
2018-10-07T04:03:55.651Z,931.4
2018-10-07T04:04:55.997Z,931.3
2018-10-07T04:05:55.935Z,931.4
2018-10-07T04:06:55.851Z,931.5
2018-10-07T04:07:55.765Z,931.5
2018-10-07T04:08:55.685Z,931.5
2018-10-07T04:09:55.597Z,931.5
2018-10-07T04:10:55.505Z,931.4
2018-10-07T04:11:55.450Z,931.5
2018-10-07T04:12:55.353Z,931.4
2018-10-07T04:13:55.261Z,931.5
2018-10-07T04:14:55.484Z,931.4
2018-10-07T04:15:55.292Z,931.4
2018-10-07T04:16:55.028Z,931.5
2018-10-07T04:17:54.762Z,931.5
2018-10-07T04:18:54.499Z,931.6
2018-10-07T04:19:54.235Z,931.6
2018-10-07T04:20:53.984Z,931.6
2018-10-07T04:21:53.767Z,931.5
2018-10-07T04:22:53.504Z,931.5
2018-10-07T04:23:53.246Z,931.6
2018-10-07T04:24:53.600Z,931.7
2018-10-07T04:25:53.517Z,931.7
2018-10-07T04:26:53.424Z,931.7
2018-10-07T04:27:53.351Z,931.7
2018-10-07T04:28:53.280Z,931.7
2018-10-07T04:29:53.188Z,931.6
2018-10-07T04:30:53.089Z,931.7
2018-10-07T04:31:53.003Z,931.6
2018-10-07T04:32:52.933Z,931.7
2018-10-07T04:33:52.856Z,931.7
2018-10-07T04:34:53.220Z,931.7
2018-10-07T04:35:53.128Z,931.7
2018-10-07T04:36:53.052Z,931.7
2018-10-07T04:37:52.956Z,931.6
2018-10-07T04:38:52.886Z,931.7
2018-10-07T04:39:53.436Z,931.7
2018-10-07T04:40:53.358Z,931.8
2018-10-07T04:41:53.284Z,931.7
2018-10-07T04:42:53.208Z,931.7
2018-10-07T04:43:53.130Z,931.8
2018-10-07T04:44:53.293Z,931.7
2018-10-07T04:45:53.025Z,931.8
2018-10-07T04:46:52.764Z,931.8
2018-10-07T04:47:52.505Z,931.7
2018-10-07T04:48:52.251Z,931.8
2018-10-07T04:49:52.008Z,931.9
2018-10-07T04:50:51.756Z,931.9
2018-10-07T04:51:51.502Z,931.7
2018-10-07T04:52:51.256Z,931.9
2018-10-07T04:53:51.004Z,931.9
2018-10-07T04:54:51.359Z,931.9
2018-10-07T04:55:51.288Z,932
2018-10-07T04:56:51.211Z,931.9
2018-10-07T04:57:51.105Z,932
2018-10-07T04:58:51.003Z,931.9
2018-10-07T04:59:50.911Z,931.9
2018-10-07T05:00:50.837Z,931.9
2018-10-07T05:01:50.758Z,931.9
2018-10-07T05:02:50.684Z,932
2018-10-07T05:03:50.588Z,932
2018-10-07T05:04:50.937Z,932
2018-10-07T05:05:50.839Z,931.9
2018-10-07T05:06:50.782Z,931.9
2018-10-07T05:07:50.696Z,931.9
2018-10-07T05:08:50.610Z,932
2018-10-07T05:09:50.524Z,932
2018-10-07T05:10:50.433Z,932
2018-10-07T05:11:50.356Z,932.1
2018-10-07T05:12:50.297Z,932
2018-10-07T05:13:50.216Z,932.1
2018-10-07T05:14:50.550Z,931.5
2018-10-07T05:15:50.461Z,932
2018-10-07T05:16:50.407Z,932
2018-10-07T05:17:50.342Z,932
2018-10-07T05:18:50.246Z,932.1
2018-10-07T05:19:50.151Z,932
2018-10-07T05:20:50.630Z,932.1
2018-10-07T05:21:50.555Z,932.1
2018-10-07T05:22:50.490Z,932
2018-10-07T05:23:50.393Z,932
2018-10-07T05:24:50.754Z,932.1
2018-10-07T05:25:50.653Z,932.1
2018-10-07T05:26:50.590Z,932.1
2018-10-07T05:27:50.504Z,932
2018-10-07T05:28:50.440Z,932.2
2018-10-07T05:29:50.351Z,932.2
2018-10-07T05:30:50.246Z,932.1
2018-10-07T05:31:50.178Z,932.2
2018-10-07T05:32:50.085Z,932.2
2018-10-07T05:33:50.011Z,932.2
2018-10-07T05:34:50.409Z,932.2
2018-10-07T05:35:50.319Z,932.2
2018-10-07T05:36:50.222Z,932.3
2018-10-07T05:37:50.140Z,932.3
2018-10-07T05:38:50.035Z,932.2
2018-10-07T05:39:49.985Z,932.2
2018-10-07T05:40:49.899Z,932.2
2018-10-07T05:41:49.835Z,932.3
2018-10-07T05:42:49.741Z,932.3
2018-10-07T05:43:49.648Z,932.3
2018-10-07T05:44:50.730Z,932.3
2018-10-07T05:45:50.538Z,932.2
2018-10-07T05:46:50.286Z,932.3
2018-10-07T05:47:50.026Z,932.3
2018-10-07T05:48:49.759Z,932
2018-10-07T05:49:49.501Z,932.4
2018-10-07T05:50:49.255Z,932.3
2018-10-07T05:51:48.986Z,932.4
2018-10-07T05:52:48.719Z,932.4
2018-10-07T05:53:48.457Z,932.4
2018-10-07T05:54:48.797Z,932.4
2018-10-07T05:55:49.727Z,932.4
2018-10-07T05:56:49.673Z,932.4
2018-10-07T05:57:49.586Z,932.4
2018-10-07T05:58:49.484Z,932.4
2018-10-07T05:59:49.389Z,932.4
2018-10-07T06:00:49.353Z,932.4
2018-10-07T06:01:50.095Z,932.4
2018-10-07T06:02:50.138Z,932.5
2018-10-07T06:03:50.047Z,932.3
2018-10-07T06:04:50.414Z,932.5
2018-10-07T06:05:50.302Z,932.5
2018-10-07T06:06:50.241Z,932.5
2018-10-07T06:07:50.163Z,932.5
2018-10-07T06:08:50.079Z,932.5
2018-10-07T06:09:49.993Z,932.5
2018-10-07T06:10:49.922Z,932.6
2018-10-07T06:11:49.825Z,932.6
2018-10-07T06:12:49.762Z,932.7
2018-10-07T06:13:49.705Z,932.6
2018-10-07T06:14:50.679Z,932.7
2018-10-07T06:15:50.615Z,932.7
2018-10-07T06:16:50.528Z,932.7
2018-10-07T06:17:50.433Z,932.7
2018-10-07T06:18:50.343Z,932.7
2018-10-07T06:19:50.263Z,932.6
2018-10-07T06:20:50.170Z,932.6
2018-10-07T06:21:50.091Z,932.6
2018-10-07T06:22:50.013Z,932.7
2018-10-07T06:23:49.946Z,932.6
2018-10-07T06:24:50.298Z,932.6
2018-10-07T06:25:50.218Z,932.8
2018-10-07T06:26:50.142Z,932.8
2018-10-07T06:27:50.066Z,932.8
2018-10-07T06:28:49.974Z,932.7
2018-10-07T06:29:50.422Z,932.8
2018-10-07T06:30:50.385Z,932.8
2018-10-07T06:31:50.289Z,932.8
2018-10-07T06:32:52.950Z,932.8
2018-10-07T06:33:52.879Z,932.9
2018-10-07T06:34:53.246Z,932.7
2018-10-07T06:35:53.155Z,933
2018-10-07T06:36:53.064Z,933
2018-10-07T06:37:52.976Z,932.9
2018-10-07T06:38:52.887Z,933
2018-10-07T06:39:53.338Z,933.1
2018-10-07T06:40:53.279Z,933
2018-10-07T06:41:53.231Z,933.1
2018-10-07T06:42:53.149Z,933
2018-10-07T06:43:53.074Z,933
2018-10-07T06:44:53.497Z,933
2018-10-07T06:45:53.991Z,933.1
2018-10-07T06:46:53.926Z,932.9
2018-10-07T06:47:53.884Z,933
2018-10-07T06:48:53.801Z,933.1
2018-10-07T06:49:53.714Z,933.1
2018-10-07T06:50:53.643Z,933
2018-10-07T06:51:53.540Z,933.2
2018-10-07T06:52:53.446Z,933.1
2018-10-07T06:53:53.387Z,933.1
2018-10-07T06:54:53.578Z,933.1
2018-10-07T06:55:53.314Z,933.2
2018-10-07T06:56:53.073Z,933.1
2018-10-07T06:57:52.812Z,933.3
2018-10-07T06:58:52.551Z,933.3
2018-10-07T06:59:52.286Z,933.3
2018-10-07T07:00:52.032Z,933.2
2018-10-07T07:01:51.771Z,933.2
2018-10-07T07:02:51.521Z,933.3
2018-10-07T07:03:51.256Z,933.3
2018-10-07T07:04:51.606Z,933.4
2018-10-07T07:05:51.518Z,933.3
2018-10-07T07:06:51.423Z,933.3
2018-10-07T07:07:51.357Z,933.4
2018-10-07T07:08:51.279Z,933.4
2018-10-07T07:09:51.200Z,933.4
2018-10-07T07:10:51.119Z,933.3
2018-10-07T07:11:51.042Z,933.3
2018-10-07T07:12:51.240Z,933.5
2018-10-07T07:13:51.169Z,933.4
2018-10-07T07:14:51.347Z,933.4
2018-10-07T07:15:51.084Z,933.5
2018-10-07T07:16:50.828Z,933.5
2018-10-07T07:17:50.577Z,933.5
2018-10-07T07:18:50.312Z,933.5
2018-10-07T07:19:50.509Z,933.3
2018-10-07T07:20:50.292Z,933.5
2018-10-07T07:21:50.026Z,933.5
2018-10-07T07:22:49.749Z,933.5
2018-10-07T07:23:49.487Z,933.5
2018-10-07T07:24:49.871Z,933.6
2018-10-07T07:25:49.783Z,933.6
2018-10-07T07:26:49.688Z,933.5
2018-10-07T07:27:49.613Z,933.5
2018-10-07T07:28:49.509Z,933.5
2018-10-07T07:29:49.426Z,933.3
2018-10-07T07:30:49.400Z,933.7
2018-10-07T07:31:49.316Z,933.6
2018-10-07T07:32:49.226Z,933.7
2018-10-07T07:33:49.145Z,933.3
2018-10-07T07:34:49.551Z,933.7
2018-10-07T07:35:49.462Z,933.7
2018-10-07T07:36:49.895Z,933.8
2018-10-07T07:37:49.819Z,933.8
2018-10-07T07:38:49.760Z,933.8
2018-10-07T07:39:49.658Z,933.7
2018-10-07T07:40:49.577Z,933.8
2018-10-07T07:41:49.549Z,933.8
2018-10-07T07:42:49.469Z,933.8
2018-10-07T07:43:49.386Z,933.8
2018-10-07T07:44:49.560Z,933.8
2018-10-07T07:45:49.295Z,933.8
2018-10-07T07:46:49.042Z,933.8
2018-10-07T07:47:48.806Z,933.9
2018-10-07T07:48:48.539Z,933.8
2018-10-07T07:49:48.273Z,933.8
2018-10-07T07:50:48.015Z,933.7
2018-10-07T07:51:47.754Z,933.9
2018-10-07T07:52:47.502Z,933.8
2018-10-07T07:53:47.281Z,933.8
2018-10-07T07:54:47.630Z,933.9
2018-10-07T07:55:47.549Z,933.8
2018-10-07T07:56:47.458Z,933.7
2018-10-07T07:57:47.375Z,933.9
2018-10-07T07:58:47.295Z,933.9
2018-10-07T07:59:47.225Z,933.9
2018-10-07T08:00:47.138Z,933.9
2018-10-07T08:01:47.038Z,934
2018-10-07T08:02:51.862Z,934
2018-10-07T08:03:51.777Z,933.9
2018-10-07T08:04:52.169Z,934.1
2018-10-07T08:05:52.101Z,934.1
2018-10-07T08:06:52.014Z,933.9
2018-10-07T08:07:51.929Z,934
2018-10-07T08:08:52.660Z,934
2018-10-07T08:09:52.687Z,934.1
2018-10-07T08:10:52.612Z,934.1
2018-10-07T08:11:52.521Z,934
2018-10-07T08:12:52.428Z,934.1
2018-10-07T08:13:52.339Z,934.1
2018-10-07T08:14:52.715Z,934
2018-10-07T08:15:52.656Z,934.1
2018-10-07T08:16:52.575Z,934.1
2018-10-07T08:17:53.124Z,934
2018-10-07T08:18:53.079Z,934.2
2018-10-07T08:19:52.980Z,934.1
2018-10-07T08:20:52.908Z,934.1
2018-10-07T08:21:52.843Z,934.1
2018-10-07T08:22:52.754Z,934.1
2018-10-07T08:23:53.404Z,934.2
2018-10-07T08:24:53.950Z,934.2
2018-10-07T08:25:53.853Z,934.2
2018-10-07T08:26:53.808Z,934.1
2018-10-07T08:27:53.714Z,934.1
2018-10-07T08:28:53.622Z,934.1
2018-10-07T08:29:53.537Z,934.2
2018-10-07T08:30:53.438Z,934.1
2018-10-07T08:31:53.341Z,934.1
2018-10-07T08:32:53.271Z,934.2
2018-10-07T08:33:53.188Z,934.2
2018-10-07T08:34:53.522Z,934.1
2018-10-07T08:35:53.440Z,934.1
2018-10-07T08:36:53.347Z,934.1
2018-10-07T08:37:53.255Z,934
2018-10-07T08:38:53.195Z,934.1
2018-10-07T08:39:53.112Z,934.1
2018-10-07T08:40:53.018Z,934.1
2018-10-07T08:41:52.922Z,934.2
2018-10-07T08:42:52.821Z,934.2
2018-10-07T08:43:52.746Z,934.1
2018-10-07T08:44:53.123Z,934.2
2018-10-07T08:45:53.029Z,934.2
2018-10-07T08:46:52.946Z,934.2
2018-10-07T08:47:52.870Z,934.2
2018-10-07T08:48:54.058Z,934.2
2018-10-07T08:49:54.920Z,934.1
2018-10-07T08:50:54.873Z,934
2018-10-07T08:51:54.780Z,934.1
2018-10-07T08:52:54.706Z,934.1
2018-10-07T08:53:54.611Z,934.2
2018-10-07T08:54:54.990Z,934.1
2018-10-07T08:55:55.116Z,934.1
2018-10-07T08:56:55.030Z,934.1
2018-10-07T08:57:54.940Z,933.8
2018-10-07T08:58:54.841Z,934.2
2018-10-07T08:59:54.776Z,934.2
2018-10-07T09:00:54.704Z,934.2
2018-10-07T09:01:54.945Z,934.2
2018-10-07T09:02:54.912Z,934.3
2018-10-07T09:03:54.826Z,934
2018-10-07T09:04:55.192Z,934.2
2018-10-07T09:05:55.133Z,934.2
2018-10-07T09:06:55.055Z,934.2
2018-10-07T09:07:54.975Z,934.2
2018-10-07T09:08:55.763Z,934.2
2018-10-07T09:09:55.806Z,934.1
2018-10-07T09:10:55.755Z,934.1
2018-10-07T09:11:55.672Z,934.2
2018-10-07T09:12:55.585Z,934.2
2018-10-07T09:13:55.494Z,934.2
2018-10-07T09:14:55.861Z,934.1
2018-10-07T09:15:56.006Z,934.2
2018-10-07T09:16:55.940Z,934.3
2018-10-07T09:17:55.856Z,934.2
2018-10-07T09:18:55.762Z,934.2
2018-10-07T09:19:55.674Z,934.2
2018-10-07T09:20:56.018Z,934.2
2018-10-07T09:21:55.982Z,934.3
2018-10-07T09:22:55.931Z,934.2
2018-10-07T09:23:55.835Z,934.2
2018-10-07T09:24:56.233Z,934.3
2018-10-07T09:25:56.146Z,934.1
2018-10-07T09:26:56.797Z,934.2
2018-10-07T09:27:57.085Z,934.1
2018-10-07T09:28:57.011Z,934.3
2018-10-07T09:29:56.972Z,934.2
2018-10-07T09:30:56.898Z,934.1
2018-10-07T09:31:57.058Z,934.2
2018-10-07T09:32:57.824Z,934.2
2018-10-07T09:33:57.847Z,934.1
2018-10-07T09:34:58.873Z,934
2018-10-07T09:35:58.779Z,934
2018-10-07T09:36:58.725Z,934.2
2018-10-07T09:37:58.666Z,934.2
2018-10-07T09:38:58.569Z,934.2
2018-10-07T09:39:58.735Z,934.1
2018-10-07T09:40:58.647Z,934.2
2018-10-07T09:41:58.808Z,934.2
2018-10-07T09:42:58.739Z,934.1
2018-10-07T09:43:58.664Z,934.2
2018-10-07T09:44:58.839Z,934.2
2018-10-07T09:45:58.576Z,934.2
2018-10-07T09:46:58.423Z,934.2
2018-10-07T09:47:58.173Z,934.1
2018-10-07T09:48:58.166Z,934.2
2018-10-07T09:49:57.908Z,934.2
2018-10-07T09:50:57.655Z,934.2
2018-10-07T09:51:57.410Z,934.2
2018-10-07T09:52:57.143Z,934
2018-10-07T09:53:56.913Z,934.3
2018-10-07T09:54:57.103Z,934.3
2018-10-07T09:55:57.221Z,934.1
2018-10-07T09:56:57.033Z,934.2
2018-10-07T09:57:57.241Z,934.2
2018-10-07T09:58:56.995Z,934.1
2018-10-07T09:59:56.763Z,934.2
2018-10-07T10:00:56.523Z,934.2
2018-10-07T10:01:56.272Z,934.2
2018-10-07T10:02:56.023Z,934.2
2018-10-07T10:03:55.926Z,934.2
2018-10-07T10:04:56.692Z,934.2
2018-10-07T10:05:57.280Z,934.3
2018-10-07T10:06:57.412Z,934.1
2018-10-07T10:07:57.334Z,934.2
2018-10-07T10:08:57.490Z,934.2
2018-10-07T10:09:57.400Z,934.3
2018-10-07T10:10:57.683Z,934.2
2018-10-07T10:11:57.601Z,933.8
2018-10-07T10:12:57.527Z,934.3
2018-10-07T10:13:57.441Z,934.3
2018-10-07T10:14:57.793Z,934.3
2018-10-07T10:15:57.552Z,934.2
2018-10-07T10:16:57.311Z,934.2
2018-10-07T10:17:57.057Z,934.3
2018-10-07T10:18:56.801Z,934.3
2018-10-07T10:19:56.532Z,934.1
2018-10-07T10:20:56.279Z,934.3
2018-10-07T10:21:56.066Z,934.3
2018-10-07T10:22:55.868Z,934.4
2018-10-07T10:23:55.612Z,934.3
2018-10-07T10:24:56.199Z,934.4
2018-10-07T10:25:56.106Z,934.4
2018-10-07T10:26:56.005Z,934.3
2018-10-07T10:27:56.129Z,934.4
2018-10-07T10:28:56.070Z,934.2
2018-10-07T10:29:55.988Z,934.3
2018-10-07T10:30:56.128Z,934.3
2018-10-07T10:31:56.051Z,934.3
2018-10-07T10:32:55.981Z,934.4
2018-10-07T10:33:55.906Z,934.3
2018-10-07T10:34:56.532Z,934.4
2018-10-07T10:35:56.440Z,934.4
2018-10-07T10:36:57.277Z,934.4
2018-10-07T10:37:57.230Z,934.3
2018-10-07T10:38:57.132Z,934.4
2018-10-07T10:39:57.705Z,934.4
2018-10-07T10:40:57.692Z,934.3
2018-10-07T10:41:57.607Z,934.4
2018-10-07T10:42:57.530Z,934.4
2018-10-07T10:43:57.432Z,934.4
2018-10-07T10:44:57.793Z,934.4
2018-10-07T10:45:57.742Z,934.5
2018-10-07T10:46:57.650Z,934.4
2018-10-07T10:47:57.764Z,934.4
2018-10-07T10:48:57.690Z,934.3
2018-10-07T10:49:57.615Z,934.4
2018-10-07T10:50:57.559Z,934.3
2018-10-07T10:51:57.483Z,934.4
2018-10-07T10:52:57.400Z,934.4
2018-10-07T10:54:01.404Z,934.5
2018-10-07T10:55:02.235Z,934
2018-10-07T10:56:02.423Z,934.3
2018-10-07T10:57:02.335Z,934.3
2018-10-07T10:58:02.286Z,934.3
2018-10-07T10:59:02.204Z,934.4
2018-10-07T11:00:02.182Z,934.4
2018-10-07T11:01:02.605Z,934.4
2018-10-07T11:02:02.575Z,934
2018-10-07T11:03:02.490Z,934.3
2018-10-07T11:04:02.404Z,934.4
2018-10-07T11:05:03.236Z,934.4
2018-10-07T11:06:03.148Z,934.3
2018-10-07T11:07:03.143Z,934.3
2018-10-07T11:08:03.049Z,934.3
2018-10-07T11:09:03.255Z,934.4
2018-10-07T11:10:03.183Z,934.3
2018-10-07T11:11:03.108Z,934.3
2018-10-07T11:12:03.018Z,934.2
2018-10-07T11:13:02.979Z,934.3
2018-10-07T11:14:03.133Z,934.2
2018-10-07T11:15:03.508Z,934.3
2018-10-07T11:16:03.409Z,934.4
2018-10-07T11:17:03.341Z,934.3
2018-10-07T11:18:03.272Z,934.3
2018-10-07T11:19:03.223Z,934.3
2018-10-07T11:20:03.144Z,934.3
2018-10-07T11:21:03.057Z,934.3
2018-10-07T11:22:02.969Z,934.4
2018-10-07T11:23:02.897Z,934.3
2018-10-07T11:24:02.826Z,934.4
2018-10-07T11:25:03.313Z,934.3
2018-10-07T11:26:03.336Z,934.3
2018-10-07T11:27:03.088Z,934.4
2018-10-07T11:28:02.822Z,934.3
2018-10-07T11:29:02.600Z,934.4
2018-10-07T11:30:02.828Z,934.4
2018-10-07T11:31:02.555Z,934.4
2018-10-07T11:32:02.318Z,934.4
2018-10-07T11:33:02.056Z,934.2
2018-10-07T11:34:01.808Z,934.4
2018-10-07T11:35:02.030Z,934.4
2018-10-07T11:36:01.807Z,934.4
2018-10-07T11:37:01.548Z,934.5
2018-10-07T11:38:01.287Z,934.5
2018-10-07T11:39:01.017Z,934.5
2018-10-07T11:40:00.758Z,934.4
2018-10-07T11:41:00.503Z,934.5
2018-10-07T11:42:00.267Z,934.5
2018-10-07T11:43:00.004Z,934.5
2018-10-07T11:43:59.765Z,934.5
2018-10-07T11:44:59.966Z,934.5
2018-10-07T11:45:59.702Z,934.5
2018-10-07T11:46:59.451Z,934.5
2018-10-07T11:47:59.217Z,934.5
2018-10-07T11:48:58.955Z,934.5
2018-10-07T11:49:58.696Z,934.5
2018-10-07T11:50:58.431Z,934.5
2018-10-07T11:51:58.182Z,934.4
2018-10-07T11:52:58.726Z,934.5
2018-10-07T11:53:58.497Z,934.5
2018-10-07T11:54:58.852Z,934.5
2018-10-07T11:55:58.795Z,934.5
2018-10-07T11:56:58.711Z,934.5
2018-10-07T11:57:58.865Z,934.6
2018-10-07T11:58:58.798Z,934.6
2018-10-07T11:59:58.709Z,934.6
2018-10-07T12:00:58.634Z,934.6
2018-10-07T12:01:58.539Z,934.6
2018-10-07T12:02:58.496Z,934.5
2018-10-07T12:03:58.414Z,934.5
2018-10-07T12:04:58.768Z,934.5
2018-10-07T12:05:58.704Z,934.6
2018-10-07T12:06:58.608Z,934.5
2018-10-07T12:07:58.511Z,934.6
2018-10-07T12:08:58.455Z,934.6
2018-10-07T12:09:58.359Z,934.6
2018-10-07T12:10:58.261Z,934.6
2018-10-07T12:11:58.165Z,934.6
2018-10-07T12:12:58.073Z,934.6
2018-10-07T12:13:58.009Z,934.6
2018-10-07T12:14:58.410Z,934.6
2018-10-07T12:15:58.317Z,934.6
2018-10-07T12:16:58.274Z,934.6
2018-10-07T12:17:58.641Z,934.5
2018-10-07T12:18:58.577Z,934.5
2018-10-07T12:19:58.497Z,934.6
2018-10-07T12:20:58.431Z,934.6
2018-10-07T12:21:58.347Z,934.6
2018-10-07T12:22:58.235Z,934.6
2018-10-07T12:23:58.175Z,934.6
2018-10-07T12:24:58.743Z,934.7
2018-10-07T12:25:58.656Z,934.7
2018-10-07T12:26:58.582Z,934.6
2018-10-07T12:27:58.709Z,934.6
2018-10-07T12:28:59.305Z,934.6
2018-10-07T12:29:59.245Z,934.7
2018-10-07T12:30:59.593Z,934.7
2018-10-07T12:31:59.522Z,934.7
2018-10-07T12:32:59.446Z,934.7
2018-10-07T12:33:59.358Z,934.7
2018-10-07T12:34:59.948Z,934.7
2018-10-07T12:35:59.852Z,934.8
2018-10-07T12:36:59.777Z,934.7
2018-10-07T12:37:59.681Z,934.7
2018-10-07T12:38:59.611Z,934.7
2018-10-07T12:39:59.538Z,934.5
2018-10-07T12:40:59.450Z,934.8
2018-10-07T12:41:59.357Z,934.7
2018-10-07T12:42:59.283Z,934.7
2018-10-07T12:43:59.219Z,934.7
2018-10-07T12:44:59.618Z,934.7
2018-10-07T12:45:59.532Z,934.7
2018-10-07T12:46:59.452Z,934.8
2018-10-07T12:47:59.359Z,934.8
2018-10-07T12:48:59.270Z,934.8
2018-10-07T12:49:59.402Z,934.7
2018-10-07T12:50:59.536Z,934.8
2018-10-07T12:51:59.450Z,934.8
2018-10-07T12:52:59.352Z,934.8
2018-10-07T12:54:00.037Z,934.7
2018-10-07T12:55:00.887Z,934.8